createdAt,value
2023-01-09T00:04:59.859Z,68.18
2023-01-09T00:10:02.648Z,67.97
2023-01-09T00:15:06.737Z,67.90
2023-01-09T00:20:12.286Z,68.38
2023-01-09T00:25:15.125Z,69.10
2023-01-09T00:30:18.168Z,69.68
2023-01-09T00:35:25.251Z,70.79
2023-01-09T00:40:28.082Z,72.10
2023-01-09T00:45:31.374Z,73.41
2023-01-09T00:50:36.684Z,74.37
2023-01-09T00:55:41.326Z,75.12
2023-01-09T01:00:44.263Z,75.44
2023-01-09T01:06:05.889Z,75.69
2023-01-09T01:11:11.138Z,75.11
2023-01-09T01:16:14.588Z,75.44
2023-01-09T01:21:19.025Z,75.15
2023-01-09T01:26:21.787Z,75.07
2023-01-09T01:31:24.592Z,75.88
2023-01-09T01:36:28.715Z,76.75
2023-01-09T01:41:31.579Z,78.20
2023-01-09T01:46:35.517Z,79.68
2023-01-09T01:51:42.543Z,81.62
2023-01-09T01:56:47.875Z,83.33
2023-01-09T02:01:54.487Z,84.27
2023-01-09T02:07:01.652Z,84.84
2023-01-09T02:12:17.462Z,86.34
2023-01-09T02:17:32.270Z,87.55
2023-01-09T02:22:43.571Z,86.61
2023-01-09T02:28:20.560Z,87.76
2023-01-09T02:33:37.780Z,88.89
2023-01-09T02:38:49.225Z,87.33
2023-01-09T02:44:11.708Z,88.05
2023-01-09T02:49:18.122Z,87.54
2023-01-09T02:54:38.596Z,87.39
2023-01-09T02:59:57.641Z,86.87
2023-01-09T03:05:10.682Z,88.55
2023-01-09T03:10:18.867Z,88.14
2023-01-09T03:15:25.603Z,88.22
2023-01-09T03:20:31.388Z,88.21
2023-01-09T03:25:34.930Z,87.32
2023-01-09T03:30:37.914Z,88.42
2023-01-09T03:35:42.066Z,87.05
2023-01-09T03:40:44.968Z,87.66
2023-01-09T03:45:47.767Z,87.76
2023-01-09T03:50:52.641Z,87.56
2023-01-09T03:55:57.406Z,87.74
2023-01-09T04:01:02.150Z,88.02
2023-01-09T04:06:06.919Z,87.11
2023-01-09T04:11:09.695Z,87.28
2023-01-09T04:16:12.543Z,87.81
2023-01-09T04:21:16.691Z,87.60
2023-01-09T04:26:19.493Z,86.95
2023-01-09T04:31:22.276Z,87.33
2023-01-09T04:36:26.457Z,87.21
2023-01-09T04:41:46.765Z,86.66
2023-01-09T04:46:50.187Z,86.33
2023-01-09T04:51:54.656Z,86.90
2023-01-09T04:56:57.405Z,86.10
2023-01-09T05:02:01.284Z,85.21
2023-01-09T05:07:05.608Z,83.88
2023-01-09T05:12:08.655Z,84.12
2023-01-09T05:17:11.356Z,85.00
2023-01-09T05:22:15.565Z,84.11
2023-01-09T05:27:18.350Z,82.59
2023-01-09T05:32:21.142Z,81.86
2023-01-09T05:37:25.248Z,81.92
2023-01-09T05:42:28.072Z,81.88
2023-01-09T05:47:30.857Z,83.00
2023-01-09T05:52:35.021Z,83.21
2023-01-09T05:57:37.763Z,81.99
2023-01-09T06:02:40.674Z,82.31
2023-01-09T06:07:44.880Z,82.54
2023-01-09T06:12:51.429Z,82.32
2023-01-09T06:17:54.313Z,82.13
2023-01-09T06:22:58.450Z,80.65
2023-01-09T06:28:01.211Z,80.50
2023-01-09T06:33:03.958Z,81.02
2023-01-09T06:38:08.044Z,82.63
2023-01-09T06:43:10.827Z,81.60
2023-01-09T06:48:13.619Z,81.31
2023-01-09T06:53:17.725Z,81.54
2023-01-09T06:58:20.722Z,81.99
2023-01-09T07:03:23.524Z,81.60
2023-01-09T07:08:27.626Z,81.80
2023-01-09T07:13:30.402Z,81.54
2023-01-09T07:18:33.188Z,81.48
2023-01-09T07:23:37.376Z,80.06
2023-01-09T07:28:40.136Z,79.28
2023-01-09T07:33:42.935Z,78.72
2023-01-09T07:38:47.194Z,78.99
2023-01-09T07:43:49.941Z,78.49
2023-01-09T07:48:52.779Z,77.82
2023-01-09T07:53:56.926Z,77.21
2023-01-09T07:58:59.621Z,78.19
2023-01-09T08:04:02.370Z,79.60
2023-01-09T08:09:06.502Z,79.55
2023-01-09T08:14:09.299Z,78.54
2023-01-09T08:19:12.139Z,78.26
2023-01-09T08:24:16.380Z,78.28
2023-01-09T08:29:19.176Z,77.89
2023-01-09T08:34:22.069Z,77.50
2023-01-09T08:39:26.256Z,78.63
2023-01-09T08:44:46.689Z,79.19
2023-01-09T08:49:49.472Z,80.56
2023-01-09T08:54:53.604Z,80.68
2023-01-09T08:59:56.466Z,80.48
2023-01-09T09:04:59.384Z,80.08
2023-01-09T09:10:03.539Z,79.52
2023-01-09T09:15:23.419Z,79.63
2023-01-09T09:20:28.871Z,78.68
2023-01-09T09:25:33.406Z,78.27
2023-01-09T09:30:36.367Z,78.35
2023-01-09T09:35:39.146Z,77.01
2023-01-09T09:41:04.981Z,76.01
2023-01-09T09:46:16.194Z,73.44
2023-01-09T09:51:50.043Z,73.40
2023-01-09T09:56:57.700Z,73.83
2023-01-09T10:02:03.534Z,73.47
2023-01-09T10:07:09.776Z,71.77
2023-01-09T10:12:28.087Z,69.02
2023-01-09T10:17:50.964Z,67.85
2023-01-09T10:22:58.280Z,70.21
2023-01-09T10:28:19.687Z,66.08
2023-01-09T10:33:37.845Z,67.96
2023-01-09T10:38:44.272Z,69.28
2023-01-09T10:43:54.294Z,70.13
2023-01-09T10:49:01.209Z,69.79
2023-01-09T10:54:12.207Z,67.25
2023-01-09T10:59:16.426Z,67.45
2023-01-09T11:04:24.731Z,69.92
2023-01-09T11:09:27.601Z,71.33
2023-01-09T11:14:32.183Z,71.45
2023-01-09T11:19:35.009Z,71.32
2023-01-09T11:24:37.805Z,70.00
2023-01-09T11:29:42.531Z,72.53
2023-01-09T11:34:47.091Z,72.55
2023-01-09T11:39:49.932Z,73.19
2023-01-09T11:45:01.554Z,73.13
2023-01-09T11:50:18.713Z,72.77
2023-01-09T11:55:22.560Z,72.64
2023-01-09T12:00:31.175Z,74.35
2023-01-09T12:05:45.040Z,74.76
2023-01-09T12:11:10.268Z,74.34
2023-01-09T12:16:25.334Z,73.86
2023-01-09T12:21:35.433Z,72.89
2023-01-09T12:26:50.371Z,72.71
2023-01-09T12:32:26.406Z,73.40
2023-01-09T12:37:57.470Z,79.17
2023-01-09T12:43:09.462Z,83.07
2023-01-09T12:48:27.584Z,84.87
2023-01-09T12:53:35.209Z,87.76
2023-01-09T12:58:44.544Z,87.86
2023-01-09T13:03:56.061Z,87.75
2023-01-09T13:09:14.346Z,86.86
2023-01-09T13:14:23.105Z,82.63
2023-01-09T13:19:32.474Z,80.95
2023-01-09T13:24:40.932Z,79.64
2023-01-09T13:29:46.216Z,78.22
2023-01-09T13:34:54.453Z,77.20
2023-01-09T13:39:59.485Z,77.72
2023-01-09T13:45:12.587Z,77.09
2023-01-09T13:50:28.367Z,77.31
2023-01-09T13:55:37.121Z,76.96
2023-01-09T14:00:55.313Z,75.91
2023-01-09T14:06:17.526Z,75.42
2023-01-09T14:11:23.311Z,74.85
2023-01-09T14:16:27.579Z,74.10
2023-01-09T14:21:46.672Z,74.99
2023-01-09T14:26:55.252Z,75.17
2023-01-09T14:32:33.927Z,75.41
2023-01-09T14:37:40.905Z,75.95
2023-01-09T14:42:47.490Z,76.54
2023-01-09T14:47:56.421Z,76.45
2023-01-09T14:53:05.579Z,76.24
2023-01-09T14:58:12.306Z,77.50
2023-01-09T15:03:15.302Z,76.21
2023-01-09T15:08:23.406Z,76.87
2023-01-09T15:13:36.255Z,76.95
2023-01-09T15:18:43.914Z,77.45
2023-01-09T15:23:48.114Z,77.14
2023-01-09T15:28:53.593Z,77.20
2023-01-09T15:33:56.652Z,78.21
2023-01-09T15:39:01.185Z,78.02
2023-01-09T15:44:06.070Z,78.28
2023-01-09T15:49:12.342Z,78.10
2023-01-09T15:54:18.574Z,78.54
2023-01-09T15:59:27.916Z,78.91
2023-01-09T16:04:30.739Z,79.07
2023-01-09T16:09:37.793Z,78.96
2023-01-09T16:14:45.662Z,78.20
2023-01-09T16:19:50.035Z,78.94
2023-01-09T16:24:55.775Z,78.92
2023-01-09T16:29:59.732Z,80.01
2023-01-09T16:35:06.075Z,79.44
2023-01-09T16:40:32.141Z,78.47
2023-01-09T16:45:37.433Z,79.39
2023-01-09T16:50:40.810Z,79.27
2023-01-09T16:55:45.436Z,79.33
2023-01-09T17:00:48.868Z,79.50
2023-01-09T17:05:53.933Z,79.70
2023-01-09T17:10:58.415Z,82.53
2023-01-09T17:16:01.385Z,82.26
2023-01-09T17:21:04.253Z,82.21
2023-01-09T17:26:36.667Z,82.21
2023-01-09T17:31:39.547Z,82.37
2023-01-09T17:36:42.433Z,81.38
2023-01-09T17:41:46.570Z,80.71
2023-01-09T17:46:49.381Z,80.11
2023-01-09T17:51:52.179Z,79.30
2023-01-09T17:56:56.423Z,78.63
2023-01-09T18:01:59.266Z,78.13
2023-01-09T18:07:02.037Z,78.41
2023-01-09T18:12:06.690Z,78.46
2023-01-09T18:17:13.016Z,78.43
2023-01-09T18:22:15.741Z,79.64
2023-01-09T18:27:19.941Z,80.75
2023-01-09T18:32:22.758Z,81.93
2023-01-09T18:37:25.587Z,82.15
2023-01-09T18:42:29.641Z,83.31
2023-01-09T18:47:32.419Z,83.10
2023-01-09T18:52:35.217Z,82.90
2023-01-09T18:57:39.501Z,83.25
2023-01-09T19:02:42.340Z,83.43
2023-01-09T19:07:45.106Z,81.74
2023-01-09T19:12:49.242Z,82.59
2023-01-09T19:17:52.064Z,82.56
2023-01-09T19:22:56.752Z,82.96
2023-01-09T19:28:01.176Z,82.50
2023-01-09T19:33:03.944Z,81.51
2023-01-09T19:38:06.946Z,82.40
2023-01-09T19:43:11.117Z,82.02
2023-01-09T19:48:16.753Z,81.94
2023-01-09T19:53:19.523Z,81.98
2023-01-09T19:58:23.660Z,81.21
2023-01-09T20:03:26.614Z,81.35
2023-01-09T20:08:29.370Z,81.22
2023-01-09T20:13:33.727Z,82.12
2023-01-09T20:18:36.636Z,82.55
2023-01-09T20:23:39.390Z,82.00
2023-01-09T20:28:43.772Z,81.75
2023-01-09T20:33:47.706Z,81.95
2023-01-09T20:38:50.719Z,82.20
2023-01-09T20:43:56.706Z,81.13
2023-01-09T20:49:03.011Z,82.50
2023-01-09T20:54:14.997Z,81.51
2023-01-09T20:59:21.996Z,80.87
2023-01-09T21:04:24.855Z,80.30
2023-01-09T21:09:29.142Z,80.29
2023-01-09T21:14:33.311Z,81.01
2023-01-09T21:19:41.904Z,81.48
2023-01-09T21:24:44.754Z,82.60
2023-01-09T21:29:48.855Z,81.75
2023-01-09T21:34:51.627Z,82.30
2023-01-09T21:39:54.461Z,81.92
2023-01-09T21:45:16.162Z,81.86
2023-01-09T21:50:19.046Z,81.09
2023-01-09T21:55:21.799Z,82.05
2023-01-09T22:00:27.832Z,80.57
2023-01-09T22:05:30.564Z,80.33
2023-01-09T22:10:33.315Z,80.04
2023-01-09T22:15:37.517Z,81.94
2023-01-09T22:20:40.463Z,81.55
2023-01-09T22:25:43.306Z,82.40
2023-01-09T22:30:47.678Z,81.95
2023-01-09T22:35:50.440Z,82.51
2023-01-09T22:40:53.154Z,81.35
2023-01-09T22:46:01.828Z,82.13
2023-01-09T22:51:06.596Z,80.54
2023-01-09T22:56:13.006Z,81.21
2023-01-09T23:01:17.080Z,81.39
2023-01-09T23:06:21.570Z,81.05
2023-01-09T23:11:44.550Z,80.66
2023-01-09T23:16:48.684Z,81.85
2023-01-09T23:21:51.455Z,81.58
2023-01-09T23:26:54.917Z,82.18
2023-01-09T23:31:59.109Z,81.03
2023-01-09T23:37:01.837Z,80.10
2023-01-09T23:42:22.862Z,81.81
2023-01-09T23:47:26.910Z,82.39
2023-01-09T23:52:29.621Z,81.84
2023-01-09T23:57:32.369Z,83.12
